createdAt,value
2017-06-29T00:00:40.716Z,0
2017-06-29T00:01:40.396Z,0
2017-06-29T00:02:40.412Z,0
2017-06-29T00:03:39.774Z,0
2017-06-29T00:04:40.350Z,0
2017-06-29T00:05:40.039Z,0
2017-06-29T00:06:40.623Z,0
2017-06-29T00:07:40.616Z,0
2017-06-29T00:08:40.065Z,0
2017-06-29T00:09:40.024Z,0
2017-06-29T00:10:40.258Z,0
2017-06-29T00:11:40.539Z,0
2017-06-29T00:12:40.235Z,0
2017-06-29T00:13:40.224Z,0
2017-06-29T00:14:39.884Z,0
2017-06-29T00:15:40.505Z,0
2017-06-29T00:16:40.489Z,0
2017-06-29T00:17:39.839Z,0
2017-06-29T00:18:39.849Z,0
2017-06-29T00:19:39.838Z,0
2017-06-29T00:20:40.433Z,0
2017-06-29T00:21:39.803Z,0
2017-06-29T00:22:39.799Z,0
2017-06-29T00:23:40.080Z,0
2017-06-29T00:24:40.364Z,0
2017-06-29T00:25:39.498Z,0
2017-06-29T00:26:40.051Z,0
2017-06-29T00:27:39.389Z,0
2017-06-29T00:28:39.376Z,0
2017-06-29T00:29:39.663Z,0
2017-06-29T00:30:40.059Z,0
2017-06-29T00:31:40.375Z,0
2017-06-29T00:32:39.621Z,0
2017-06-29T00:33:39.610Z,0
2017-06-29T00:34:40.257Z,0
2017-06-29T00:35:39.569Z,0
2017-06-29T00:36:39.568Z,0
2017-06-29T00:37:39.553Z,0
2017-06-29T00:38:39.567Z,0
2017-06-29T00:39:38.909Z,0
2017-06-29T00:40:39.499Z,0
2017-06-29T00:41:40.113Z,0
2017-06-29T00:42:39.481Z,0
2017-06-29T00:43:39.468Z,0
2017-06-29T00:44:39.437Z,0
2017-06-29T00:45:39.744Z,0
2017-06-29T00:46:39.421Z,0
2017-06-29T00:47:39.408Z,0
2017-06-29T00:48:39.690Z,0
2017-06-29T00:49:39.693Z,0
2017-06-29T00:50:39.641Z,0
2017-06-29T00:51:39.701Z,0
2017-06-29T00:52:39.728Z,0
2017-06-29T00:53:39.342Z,0
2017-06-29T00:54:39.072Z,0
2017-06-29T00:55:39.629Z,0
2017-06-29T00:56:39.611Z,0
2017-06-29T00:57:39.290Z,0
2017-06-29T00:58:39.889Z,0
2017-06-29T00:59:39.521Z,0
2017-06-29T01:00:39.565Z,0
2017-06-29T01:01:39.788Z,0
2017-06-29T01:02:38.874Z,0
2017-06-29T01:03:39.458Z,0
2017-06-29T01:04:39.189Z,0
2017-06-29T01:05:38.828Z,0
2017-06-29T01:06:39.708Z,0
2017-06-29T01:07:39.709Z,0
2017-06-29T01:08:39.803Z,0
2017-06-29T01:09:39.075Z,0
2017-06-29T01:10:39.352Z,0
2017-06-29T01:11:39.035Z,0
2017-06-29T01:12:39.018Z,0
2017-06-29T01:13:39.619Z,0
2017-06-29T01:14:38.988Z,0
2017-06-29T01:15:39.611Z,0
2017-06-29T01:16:39.247Z,0
2017-06-29T01:17:39.269Z,0
2017-06-29T01:18:38.682Z,0
2017-06-29T01:19:38.924Z,0
2017-06-29T01:20:39.488Z,0
2017-06-29T01:21:39.028Z,0
2017-06-29T01:22:39.169Z,0
2017-06-29T01:23:39.198Z,0
2017-06-29T01:24:38.509Z,0
2017-06-29T01:25:38.510Z,0
2017-06-29T01:26:39.418Z,0
2017-06-29T01:27:39.088Z,0
2017-06-29T01:28:38.785Z,0
2017-06-29T01:29:38.468Z,0
2017-06-29T01:30:38.750Z,0
2017-06-29T01:31:39.009Z,0
2017-06-29T01:32:39.015Z,0
2017-06-29T01:33:38.993Z,0
2017-06-29T01:34:38.688Z,0
2017-06-29T01:35:38.750Z,0
2017-06-29T01:36:38.645Z,0
2017-06-29T01:37:38.342Z,0
2017-06-29T01:38:38.917Z,0
2017-06-29T01:39:38.908Z,0
2017-06-29T01:40:38.598Z,0
2017-06-29T01:41:38.565Z,0
2017-06-29T01:42:38.562Z,0
2017-06-29T01:43:38.851Z,0
2017-06-29T01:44:38.819Z,0
2017-06-29T01:45:38.199Z,0
2017-06-29T01:46:38.795Z,0
2017-06-29T01:47:38.783Z,0
2017-06-29T01:48:38.788Z,0
2017-06-29T01:49:38.450Z,0
2017-06-29T01:50:38.458Z,0
2017-06-29T01:51:37.839Z,0
2017-06-29T01:52:38.696Z,0
2017-06-29T01:53:38.678Z,0
2017-06-29T01:54:38.350Z,0
2017-06-29T01:55:38.349Z,0
2017-06-29T01:56:38.638Z,0
2017-06-29T01:57:38.626Z,0
2017-06-29T01:58:37.998Z,0
2017-06-29T01:59:38.908Z,0
2017-06-29T02:00:38.275Z,0
2017-06-29T02:01:38.561Z,0
2017-06-29T02:02:38.857Z,0
2017-06-29T02:03:38.538Z,0
2017-06-29T02:04:38.832Z,0
2017-06-29T02:05:38.808Z,0
2017-06-29T02:06:38.186Z,0
2017-06-29T02:07:38.775Z,0
2017-06-29T02:08:38.468Z,0
2017-06-29T02:09:38.731Z,0
2017-06-29T02:10:38.448Z,0
2017-06-29T02:11:38.419Z,0
2017-06-29T02:12:38.715Z,0
2017-06-29T02:13:38.733Z,0
2017-06-29T02:14:38.414Z,0
2017-06-29T02:15:38.637Z,0
2017-06-29T02:16:38.627Z,0
2017-06-29T02:17:38.319Z,0
2017-06-29T02:18:38.290Z,0
2017-06-29T02:19:37.666Z,0
2017-06-29T02:20:37.647Z,0
2017-06-29T02:21:38.547Z,0
2017-06-29T02:22:38.677Z,0
2017-06-29T02:23:38.223Z,0
2017-06-29T02:24:38.560Z,0
2017-06-29T02:25:38.508Z,0
2017-06-29T02:26:38.507Z,0
2017-06-29T02:27:38.498Z,0
2017-06-29T02:28:38.472Z,0
2017-06-29T02:29:38.449Z,0
2017-06-29T02:30:38.185Z,0
2017-06-29T02:31:38.410Z,0
2017-06-29T02:32:38.507Z,0
2017-06-29T02:33:37.451Z,0
2017-06-29T02:34:37.782Z,0
2017-06-29T02:35:38.126Z,0
2017-06-29T02:36:38.090Z,0
2017-06-29T02:37:38.079Z,0
2017-06-29T02:38:37.672Z,0
2017-06-29T02:39:37.476Z,0
2017-06-29T02:40:37.644Z,0
2017-06-29T02:41:37.718Z,0
2017-06-29T02:42:38.012Z,0
2017-06-29T02:43:37.940Z,0
2017-06-29T02:44:38.211Z,0
2017-06-29T02:45:37.880Z,0
2017-06-29T02:46:37.918Z,0
2017-06-29T02:47:37.840Z,0
2017-06-29T02:48:37.829Z,0
2017-06-29T02:49:38.139Z,0
2017-06-29T02:50:37.885Z,0
2017-06-29T02:51:37.830Z,0
2017-06-29T02:52:38.128Z,0
2017-06-29T02:53:37.442Z,0
2017-06-29T02:54:37.500Z,0
2017-06-29T02:55:37.412Z,0
2017-06-29T02:56:37.080Z,0
2017-06-29T02:57:37.993Z,0
2017-06-29T02:58:38.010Z,0
2017-06-29T02:59:37.343Z,0
2017-06-29T03:00:37.361Z,0
2017-06-29T03:01:37.430Z,0
2017-06-29T03:02:37.012Z,0
2017-06-29T03:03:37.890Z,0
2017-06-29T03:04:37.280Z,0
2017-06-29T03:05:37.244Z,0
2017-06-29T03:06:37.241Z,0
2017-06-29T03:07:37.522Z,0
2017-06-29T03:08:37.206Z,0
2017-06-29T03:09:37.196Z,0
2017-06-29T03:10:36.860Z,0
2017-06-29T03:11:37.150Z,0
2017-06-29T03:12:37.140Z,0
2017-06-29T03:13:37.430Z,0
2017-06-29T03:14:37.826Z,0
2017-06-29T03:15:37.722Z,0
2017-06-29T03:16:37.090Z,0
2017-06-29T03:17:37.681Z,0
2017-06-29T03:18:36.750Z,0
2017-06-29T03:19:36.731Z,5
2017-06-29T03:20:37.640Z,5
2017-06-29T03:21:37.301Z,5
2017-06-29T03:22:37.280Z,5
2017-06-29T03:23:37.279Z,5
2017-06-29T03:24:37.272Z,5
2017-06-29T03:25:37.249Z,5
2017-06-29T03:26:37.261Z,5
2017-06-29T03:27:37.211Z,5
2017-06-29T03:28:36.286Z,5
2017-06-29T03:29:37.212Z,5
2017-06-29T03:30:37.172Z,5
2017-06-29T03:31:37.489Z,5
2017-06-29T03:32:37.140Z,5
2017-06-29T03:33:37.146Z,5
2017-06-29T03:34:36.489Z,10
2017-06-29T03:35:36.777Z,10
2017-06-29T03:36:37.369Z,10
2017-06-29T03:37:37.062Z,10
2017-06-29T03:38:36.839Z,10
2017-06-29T03:39:37.018Z,10
2017-06-29T03:40:37.030Z,10
2017-06-29T03:41:37.301Z,10
2017-06-29T03:42:36.681Z,10
2017-06-29T03:43:36.345Z,10
2017-06-29T03:44:37.303Z,15
2017-06-29T03:45:36.607Z,15
2017-06-29T03:46:37.258Z,15
2017-06-29T03:47:37.227Z,15
2017-06-29T03:48:36.602Z,15
2017-06-29T03:49:36.259Z,15
2017-06-29T03:50:36.867Z,15
2017-06-29T03:51:37.154Z,15
2017-06-29T03:52:36.207Z,15
2017-06-29T03:53:36.511Z,15
2017-06-29T03:54:36.777Z,15
2017-06-29T03:55:36.141Z,20
2017-06-29T03:56:37.060Z,20
2017-06-29T03:57:36.722Z,20
2017-06-29T03:58:36.742Z,20
2017-06-29T03:59:36.111Z,20
2017-06-29T04:00:36.714Z,20
2017-06-29T04:01:36.371Z,20
2017-06-29T04:02:36.676Z,25
2017-06-29T04:03:36.362Z,25
2017-06-29T04:04:36.937Z,25
2017-06-29T04:05:36.932Z,25
2017-06-29T04:06:36.597Z,25
2017-06-29T04:07:36.590Z,25
2017-06-29T04:08:36.243Z,25
2017-06-29T04:09:36.549Z,25
2017-06-29T04:10:36.677Z,25
2017-06-29T04:11:36.522Z,25
2017-06-29T04:12:36.290Z,30
2017-06-29T04:13:36.191Z,30
2017-06-29T04:14:36.790Z,25
2017-06-29T04:15:36.462Z,25
2017-06-29T04:16:35.832Z,30
2017-06-29T04:17:36.432Z,30
2017-06-29T04:18:36.742Z,30
2017-06-29T04:19:36.134Z,30
2017-06-29T04:20:36.388Z,30
2017-06-29T04:21:36.678Z,30
2017-06-29T04:22:36.340Z,30
2017-06-29T04:23:36.085Z,35
2017-06-29T04:24:36.631Z,35
2017-06-29T04:25:36.410Z,35
2017-06-29T04:26:36.281Z,35
2017-06-29T04:27:36.004Z,35
2017-06-29T04:28:36.259Z,35
2017-06-29T04:29:36.259Z,35
2017-06-29T04:30:36.240Z,35
2017-06-29T04:31:36.240Z,35
2017-06-29T04:32:36.191Z,35
2017-06-29T04:33:36.240Z,40
2017-06-29T04:34:36.215Z,35
2017-06-29T04:35:36.189Z,40
2017-06-29T04:36:36.133Z,40
2017-06-29T04:37:36.110Z,40
2017-06-29T04:38:36.140Z,40
2017-06-29T04:39:36.119Z,40
2017-06-29T04:40:36.173Z,40
2017-06-29T04:41:35.761Z,40
2017-06-29T04:42:36.042Z,40
2017-06-29T04:43:36.053Z,40
2017-06-29T04:44:36.336Z,40
2017-06-29T04:45:36.043Z,40
2017-06-29T04:46:36.309Z,40
2017-06-29T04:47:36.350Z,40
2017-06-29T04:48:36.001Z,40
2017-06-29T04:49:36.349Z,40
2017-06-29T04:50:35.917Z,45
2017-06-29T04:51:35.594Z,45
2017-06-29T04:52:36.355Z,45
2017-06-29T04:53:36.192Z,45
2017-06-29T04:54:35.868Z,45
2017-06-29T04:55:36.170Z,50
2017-06-29T04:56:36.191Z,50
2017-06-29T04:57:36.161Z,50
2017-06-29T04:58:36.113Z,50
2017-06-29T04:59:35.469Z,50
2017-06-29T05:00:36.071Z,50
2017-06-29T05:01:36.040Z,50
2017-06-29T05:02:36.048Z,50
2017-06-29T05:03:35.175Z,50
2017-06-29T05:04:35.703Z,50
2017-06-29T05:05:35.068Z,50
2017-06-29T05:06:36.001Z,55
2017-06-29T05:07:36.081Z,55
2017-06-29T05:08:35.638Z,55
2017-06-29T05:09:35.924Z,55
2017-06-29T05:10:35.666Z,55
2017-06-29T05:11:35.949Z,55
2017-06-29T05:12:35.952Z,55
2017-06-29T05:13:35.233Z,55
2017-06-29T05:14:35.593Z,55
2017-06-29T05:15:35.808Z,50
2017-06-29T05:16:35.536Z,55
2017-06-29T05:17:34.871Z,55
2017-06-29T05:18:35.489Z,55
2017-06-29T05:19:35.807Z,55
2017-06-29T05:20:35.745Z,60
2017-06-29T05:21:35.823Z,60
2017-06-29T05:22:35.746Z,65
2017-06-29T05:23:35.724Z,70
2017-06-29T05:24:35.694Z,70
2017-06-29T05:25:35.373Z,75
2017-06-29T05:26:35.664Z,80
2017-06-29T05:27:35.661Z,80
2017-06-29T05:28:35.732Z,85
2017-06-29T05:29:34.693Z,90
2017-06-29T05:30:35.312Z,95
2017-06-29T05:31:35.565Z,90
2017-06-29T05:32:35.560Z,95
2017-06-29T05:33:35.552Z,95
2017-06-29T05:34:35.549Z,100
2017-06-29T05:35:34.905Z,105
2017-06-29T05:36:34.876Z,120
2017-06-29T05:37:34.907Z,115
2017-06-29T05:38:34.876Z,120
2017-06-29T05:39:35.141Z,120
2017-06-29T05:40:34.821Z,115
2017-06-29T05:41:35.431Z,110
2017-06-29T05:42:35.399Z,105
2017-06-29T05:43:35.393Z,100
2017-06-29T05:44:34.454Z,90
2017-06-29T05:45:35.361Z,85
2017-06-29T05:46:34.726Z,85
2017-06-29T05:47:34.715Z,85
2017-06-29T05:48:35.351Z,80
2017-06-29T05:49:35.014Z,80
2017-06-29T05:50:34.991Z,75
2017-06-29T05:51:34.665Z,75
2017-06-29T05:52:34.942Z,80
2017-06-29T05:53:34.933Z,80
2017-06-29T05:54:34.608Z,85
2017-06-29T05:55:34.913Z,85
2017-06-29T05:56:34.874Z,85
2017-06-29T05:57:34.874Z,85
2017-06-29T05:58:34.864Z,85
2017-06-29T05:59:34.243Z,85
2017-06-29T06:00:35.149Z,85
2017-06-29T06:01:34.829Z,90
2017-06-29T06:02:35.100Z,90
2017-06-29T06:03:34.477Z,85
2017-06-29T06:04:34.776Z,90
2017-06-29T06:05:35.074Z,85
2017-06-29T06:06:34.133Z,90
2017-06-29T06:07:33.956Z,95
2017-06-29T06:08:34.704Z,100
2017-06-29T06:09:34.095Z,110
2017-06-29T06:10:34.374Z,115
2017-06-29T06:11:34.143Z,120
2017-06-29T06:12:34.666Z,125
2017-06-29T06:13:34.675Z,135
2017-06-29T06:14:34.343Z,135
2017-06-29T06:15:34.768Z,145
2017-06-29T06:16:33.992Z,150
2017-06-29T06:17:34.603Z,150
2017-06-29T06:18:34.365Z,145
2017-06-29T06:19:34.632Z,145
2017-06-29T06:20:34.891Z,140
2017-06-29T06:21:34.539Z,150
2017-06-29T06:22:34.245Z,160
2017-06-29T06:23:33.896Z,160
2017-06-29T06:24:34.215Z,160
2017-06-29T06:25:34.774Z,165
2017-06-29T06:26:34.163Z,165
2017-06-29T06:27:34.157Z,160
2017-06-29T06:28:34.742Z,165
2017-06-29T06:29:34.736Z,170
2017-06-29T06:30:34.709Z,170
2017-06-29T06:31:34.387Z,170
2017-06-29T06:32:34.694Z,175
2017-06-29T06:33:34.062Z,175
2017-06-29T06:34:34.725Z,175
2017-06-29T06:35:33.737Z,175
2017-06-29T06:36:34.755Z,180
2017-06-29T06:37:33.993Z,185
2017-06-29T06:38:34.425Z,190
2017-06-29T06:39:34.295Z,200
2017-06-29T06:40:33.980Z,190
2017-06-29T06:41:34.385Z,175
2017-06-29T06:42:33.934Z,190
2017-06-29T06:43:34.267Z,200
2017-06-29T06:44:33.915Z,185
2017-06-29T06:45:33.896Z,190
2017-06-29T06:46:33.597Z,200
2017-06-29T06:47:34.177Z,160
2017-06-29T06:48:33.553Z,160
2017-06-29T06:49:34.461Z,195
2017-06-29T06:50:33.828Z,165
2017-06-29T06:51:33.819Z,155
2017-06-29T06:52:34.136Z,175
2017-06-29T06:53:33.781Z,165
2017-06-29T06:54:34.082Z,140
2017-06-29T06:55:33.490Z,110
2017-06-29T06:56:34.462Z,115
2017-06-29T06:57:34.406Z,120
2017-06-29T06:58:34.023Z,145
2017-06-29T06:59:33.718Z,190
2017-06-29T07:00:33.715Z,195
2017-06-29T07:01:33.684Z,165
2017-06-29T07:02:34.039Z,170
2017-06-29T07:03:34.350Z,165
2017-06-29T07:04:34.004Z,190
2017-06-29T07:05:33.955Z,200
2017-06-29T07:06:33.923Z,190
2017-06-29T07:07:33.933Z,190
2017-06-29T07:08:33.924Z,190
2017-06-29T07:09:33.883Z,140
2017-06-29T07:10:33.857Z,115
2017-06-29T07:11:33.860Z,115
2017-06-29T07:12:34.146Z,90
2017-06-29T07:13:33.825Z,85
2017-06-29T07:14:33.173Z,75
2017-06-29T07:15:33.818Z,75
2017-06-29T07:16:33.795Z,75
2017-06-29T07:17:33.803Z,75
2017-06-29T07:18:33.764Z,85
2017-06-29T07:19:33.765Z,100
2017-06-29T07:20:34.059Z,95
2017-06-29T07:21:33.723Z,105
2017-06-29T07:22:34.023Z,105
2017-06-29T07:23:33.706Z,120
2017-06-29T07:24:33.691Z,125
2017-06-29T07:25:33.961Z,135
2017-06-29T07:26:33.959Z,110
2017-06-29T07:27:33.933Z,110
2017-06-29T07:28:33.645Z,100
2017-06-29T07:29:33.637Z,90
2017-06-29T07:30:33.919Z,80
2017-06-29T07:31:33.902Z,85
2017-06-29T07:32:33.880Z,95
2017-06-29T07:33:33.896Z,110
2017-06-29T07:34:33.889Z,110
2017-06-29T07:35:33.895Z,110
2017-06-29T07:36:33.843Z,85
2017-06-29T07:37:33.819Z,80
2017-06-29T07:38:33.815Z,80
2017-06-29T07:39:33.469Z,80
2017-06-29T07:40:33.794Z,80
2017-06-29T07:41:33.782Z,80
2017-06-29T07:42:33.143Z,90
2017-06-29T07:43:33.748Z,85
2017-06-29T07:44:33.716Z,85
2017-06-29T07:45:33.112Z,80
2017-06-29T07:46:33.710Z,80
2017-06-29T07:47:33.677Z,80
2017-06-29T07:48:33.372Z,80
2017-06-29T07:49:33.677Z,80
2017-06-29T07:50:33.325Z,75
2017-06-29T07:51:33.643Z,80
2017-06-29T07:52:33.392Z,75
2017-06-29T07:53:33.601Z,75
2017-06-29T07:54:33.308Z,65
2017-06-29T07:55:32.703Z,60
2017-06-29T07:56:33.264Z,55
2017-06-29T07:57:33.260Z,45
2017-06-29T07:58:33.227Z,40
2017-06-29T07:59:33.352Z,40
2017-06-29T08:00:33.582Z,40
2017-06-29T08:01:33.293Z,40
2017-06-29T08:02:33.547Z,45
2017-06-29T08:03:32.253Z,50
2017-06-29T08:04:33.145Z,50
2017-06-29T08:05:33.138Z,50
2017-06-29T08:06:33.226Z,45
2017-06-29T08:07:33.477Z,40
2017-06-29T08:08:33.396Z,35
2017-06-29T08:09:33.094Z,35
2017-06-29T08:10:33.460Z,30
2017-06-29T08:11:33.367Z,30
2017-06-29T08:12:32.724Z,25
2017-06-29T08:13:33.322Z,20
2017-06-29T08:14:33.072Z,20
2017-06-29T08:15:32.708Z,20
2017-06-29T08:16:33.463Z,20
2017-06-29T08:17:32.964Z,20
2017-06-29T08:18:32.653Z,20
2017-06-29T08:19:32.633Z,20
2017-06-29T08:20:33.352Z,20
2017-06-29T08:21:32.931Z,20
2017-06-29T08:22:33.311Z,25
2017-06-29T08:23:32.376Z,25
2017-06-29T08:24:32.931Z,30
2017-06-29T08:25:32.608Z,30
2017-06-29T08:26:32.572Z,30
2017-06-29T08:27:32.523Z,30
2017-06-29T08:28:32.502Z,30
2017-06-29T08:29:33.225Z,35
2017-06-29T08:30:32.470Z,40
2017-06-29T08:31:32.794Z,40
2017-06-29T08:32:32.766Z,45
2017-06-29T08:33:32.434Z,45
2017-06-29T08:34:33.041Z,45
2017-06-29T08:35:32.459Z,45
2017-06-29T08:36:32.715Z,45
2017-06-29T08:37:32.489Z,45
2017-06-29T08:38:32.691Z,45
2017-06-29T08:39:32.723Z,50
2017-06-29T08:40:32.958Z,55
2017-06-29T08:41:32.630Z,60
2017-06-29T08:42:32.636Z,65
2017-06-29T08:43:32.620Z,70
2017-06-29T08:44:32.598Z,70
2017-06-29T08:45:32.888Z,75
2017-06-29T08:46:32.255Z,75
2017-06-29T08:47:32.269Z,80
2017-06-29T08:48:32.571Z,85
2017-06-29T08:49:32.532Z,85
2017-06-29T08:50:32.532Z,90
2017-06-29T08:51:32.503Z,90
2017-06-29T08:52:32.490Z,90
2017-06-29T08:53:32.479Z,90
2017-06-29T08:54:32.459Z,80
2017-06-29T08:55:32.161Z,70
2017-06-29T08:56:32.547Z,65
2017-06-29T08:57:32.421Z,60
2017-06-29T08:58:32.526Z,50
2017-06-29T08:59:32.721Z,55
2017-06-29T09:00:32.078Z,50
2017-06-29T09:01:32.359Z,45
2017-06-29T09:02:32.363Z,40
2017-06-29T09:03:32.648Z,40
2017-06-29T09:04:32.630Z,45
2017-06-29T09:05:32.307Z,50
2017-06-29T09:06:32.601Z,55
2017-06-29T09:07:31.982Z,60
2017-06-29T09:08:31.966Z,65
2017-06-29T09:09:31.633Z,70
2017-06-29T09:10:32.610Z,70
2017-06-29T09:11:32.530Z,70
2017-06-29T09:12:32.218Z,70
2017-06-29T09:13:32.320Z,70
2017-06-29T09:14:32.198Z,75
2017-06-29T09:15:31.571Z,75
2017-06-29T09:16:31.872Z,75
2017-06-29T09:17:32.473Z,75
2017-06-29T09:18:31.842Z,75
2017-06-29T09:19:31.882Z,75
2017-06-29T09:20:32.505Z,75
2017-06-29T09:21:32.121Z,80
2017-06-29T09:22:31.579Z,80
2017-06-29T09:23:32.510Z,80
2017-06-29T09:24:31.757Z,85
2017-06-29T09:25:32.073Z,85
2017-06-29T09:26:31.413Z,90
2017-06-29T09:27:31.730Z,95
2017-06-29T09:28:31.679Z,100
2017-06-29T09:29:31.677Z,100
2017-06-29T09:30:31.980Z,100
2017-06-29T09:31:31.680Z,100
2017-06-29T09:32:32.292Z,100
2017-06-29T09:33:32.319Z,100
2017-06-29T09:34:32.312Z,100
2017-06-29T09:35:32.229Z,100
2017-06-29T09:36:31.910Z,100
2017-06-29T09:37:32.189Z,95
2017-06-29T09:38:31.881Z,95
2017-06-29T09:39:31.900Z,90
2017-06-29T09:40:31.537Z,90
2017-06-29T09:41:31.543Z,85
2017-06-29T09:42:31.221Z,80
2017-06-29T09:43:31.830Z,75
2017-06-29T09:44:31.821Z,70
2017-06-29T09:45:31.462Z,70
2017-06-29T09:46:31.789Z,70
2017-06-29T09:47:31.778Z,75
2017-06-29T09:48:31.421Z,75
2017-06-29T09:49:31.411Z,80
2017-06-29T09:50:31.393Z,80
2017-06-29T09:51:31.698Z,85
2017-06-29T09:52:32.008Z,85
2017-06-29T09:53:31.669Z,90
2017-06-29T09:54:32.033Z,95
2017-06-29T09:55:31.365Z,95
2017-06-29T09:56:31.952Z,100
2017-06-29T09:57:31.926Z,105
2017-06-29T09:58:31.311Z,105
2017-06-29T09:59:31.593Z,105
2017-06-29T10:00:31.385Z,105
2017-06-29T10:01:31.270Z,100
2017-06-29T10:02:31.359Z,100
2017-06-29T10:03:31.862Z,90
2017-06-29T10:04:31.599Z,80
2017-06-29T10:05:31.224Z,80
2017-06-29T10:06:31.510Z,80
2017-06-29T10:07:31.518Z,85
2017-06-29T10:08:31.488Z,95
2017-06-29T10:09:31.784Z,95
2017-06-29T10:10:31.451Z,80
2017-06-29T10:11:31.449Z,75
2017-06-29T10:12:31.149Z,75
2017-06-29T10:13:31.720Z,75
2017-06-29T10:14:31.427Z,75
2017-06-29T10:15:31.089Z,75
2017-06-29T10:16:31.398Z,80
2017-06-29T10:17:31.370Z,90
2017-06-29T10:18:31.350Z,95
2017-06-29T10:19:31.319Z,95
2017-06-29T10:20:31.632Z,100
2017-06-29T10:21:31.614Z,110
2017-06-29T10:22:31.640Z,110
2017-06-29T10:23:30.957Z,115
2017-06-29T10:24:31.252Z,130
2017-06-29T10:25:31.250Z,135
2017-06-29T10:26:31.280Z,140
2017-06-29T10:27:31.234Z,125
2017-06-29T10:28:31.232Z,110
2017-06-29T10:29:31.519Z,95
2017-06-29T10:30:31.488Z,95
2017-06-29T10:31:31.489Z,90
2017-06-29T10:32:31.497Z,85
2017-06-29T10:33:31.162Z,70
2017-06-29T10:34:31.442Z,65
2017-06-29T10:35:31.140Z,65
2017-06-29T10:36:31.116Z,70
2017-06-29T10:37:31.427Z,75
2017-06-29T10:38:31.392Z,80
2017-06-29T10:39:31.393Z,90
2017-06-29T10:40:31.069Z,100
2017-06-29T10:41:31.361Z,115
2017-06-29T10:42:31.335Z,130
2017-06-29T10:43:31.328Z,140
2017-06-29T10:44:31.039Z,150
2017-06-29T10:45:31.329Z,160
2017-06-29T10:46:31.498Z,170
2017-06-29T10:47:31.336Z,180
2017-06-29T10:48:31.274Z,185
2017-06-29T10:49:31.328Z,190
2017-06-29T10:50:31.322Z,200
2017-06-29T10:51:30.596Z,205
2017-06-29T10:52:30.585Z,205
2017-06-29T10:53:30.887Z,210
2017-06-29T10:54:30.898Z,210
2017-06-29T10:55:31.179Z,205
2017-06-29T10:56:30.841Z,205
2017-06-29T10:57:30.834Z,195
2017-06-29T10:58:30.834Z,190
2017-06-29T10:59:30.818Z,190
2017-06-29T11:00:30.818Z,195
2017-06-29T11:01:30.482Z,190
2017-06-29T11:02:31.084Z,185
2017-06-29T11:03:31.163Z,180
2017-06-29T11:04:31.050Z,160
2017-06-29T11:05:30.731Z,155
2017-06-29T11:06:31.114Z,145
2017-06-29T11:07:30.719Z,125
2017-06-29T11:08:30.693Z,115
2017-06-29T11:09:30.725Z,105
2017-06-29T11:10:31.039Z,100
2017-06-29T11:11:30.365Z,95
2017-06-29T11:12:31.007Z,85
2017-06-29T11:13:30.929Z,75
2017-06-29T11:14:30.929Z,70
2017-06-29T11:15:30.927Z,75
2017-06-29T11:16:30.983Z,85
2017-06-29T11:17:30.615Z,105
2017-06-29T11:18:30.263Z,115
2017-06-29T11:19:30.298Z,120
2017-06-29T11:20:30.539Z,130
2017-06-29T11:21:30.579Z,140
2017-06-29T11:22:30.505Z,170
2017-06-29T11:23:30.804Z,180
2017-06-29T11:24:30.220Z,175
2017-06-29T11:25:30.224Z,195
2017-06-29T11:26:30.190Z,220
2017-06-29T11:27:30.740Z,220
2017-06-29T11:28:30.764Z,215
2017-06-29T11:29:30.122Z,220
2017-06-29T11:30:30.403Z,225
2017-06-29T11:31:30.436Z,230
2017-06-29T11:32:30.504Z,215
2017-06-29T11:33:30.381Z,215
2017-06-29T11:34:30.678Z,200
2017-06-29T11:35:30.655Z,200
2017-06-29T11:36:30.321Z,190
2017-06-29T11:37:30.062Z,190
2017-06-29T11:38:30.294Z,175
2017-06-29T11:39:30.289Z,165
2017-06-29T11:40:29.654Z,165
2017-06-29T11:41:30.303Z,165
2017-06-29T11:42:30.330Z,175
2017-06-29T11:43:30.540Z,170
2017-06-29T11:44:29.905Z,180
2017-06-29T11:45:29.903Z,170
2017-06-29T11:46:30.267Z,155
2017-06-29T11:47:29.870Z,145
2017-06-29T11:48:30.485Z,130
2017-06-29T11:49:30.219Z,120
2017-06-29T11:50:30.163Z,115
2017-06-29T11:51:30.172Z,100
2017-06-29T11:52:30.450Z,80
2017-06-29T11:53:30.194Z,80
2017-06-29T11:54:30.395Z,80
2017-06-29T11:55:29.487Z,80
2017-06-29T11:56:30.403Z,80
2017-06-29T11:57:30.062Z,85
2017-06-29T11:58:30.129Z,85
2017-06-29T11:59:30.346Z,85
2017-06-29T12:00:29.741Z,85
2017-06-29T12:01:29.691Z,90
2017-06-29T12:02:30.330Z,70
2017-06-29T12:03:30.001Z,65
2017-06-29T12:04:29.969Z,75
2017-06-29T12:05:30.361Z,85
2017-06-29T12:06:29.942Z,105
2017-06-29T12:07:29.624Z,125
2017-06-29T12:08:29.947Z,130
2017-06-29T12:09:29.902Z,115
2017-06-29T12:10:29.591Z,95
2017-06-29T12:11:29.887Z,75
2017-06-29T12:12:29.580Z,65
2017-06-29T12:13:29.599Z,60
2017-06-29T12:14:29.221Z,65
2017-06-29T12:15:29.849Z,65
2017-06-29T12:16:29.651Z,65
2017-06-29T12:17:29.797Z,70
2017-06-29T12:18:29.486Z,70
2017-06-29T12:19:29.472Z,75
2017-06-29T12:20:29.148Z,80
2017-06-29T12:21:29.757Z,80
2017-06-29T12:22:30.040Z,80
2017-06-29T12:23:30.054Z,80
2017-06-29T12:24:29.701Z,75
2017-06-29T12:25:29.084Z,75
2017-06-29T12:26:29.680Z,75
2017-06-29T12:27:29.690Z,70
2017-06-29T12:28:29.053Z,60
2017-06-29T12:29:29.974Z,55
2017-06-29T12:30:29.963Z,50
2017-06-29T12:31:29.310Z,45
2017-06-29T12:32:29.922Z,45
2017-06-29T12:33:29.596Z,45
2017-06-29T12:34:29.891Z,45
2017-06-29T12:35:29.539Z,55
2017-06-29T12:36:29.611Z,65
2017-06-29T12:37:29.236Z,75
2017-06-29T12:38:29.847Z,80
2017-06-29T12:39:29.530Z,90
2017-06-29T12:40:29.823Z,90
2017-06-29T12:41:29.476Z,90
2017-06-29T12:42:29.763Z,85
2017-06-29T12:43:29.793Z,75
2017-06-29T12:44:28.836Z,75
2017-06-29T12:45:28.806Z,80
2017-06-29T12:46:29.721Z,90
2017-06-29T12:47:29.120Z,95
2017-06-29T12:48:29.060Z,95
2017-06-29T12:49:29.055Z,85
2017-06-29T12:50:29.391Z,85
2017-06-29T12:51:29.053Z,80
2017-06-29T12:52:29.339Z,85
2017-06-29T12:53:29.636Z,85
2017-06-29T12:54:29.311Z,90
2017-06-29T12:55:29.612Z,100
2017-06-29T12:56:29.570Z,110
2017-06-29T12:57:29.608Z,110
2017-06-29T12:58:29.535Z,115
2017-06-29T12:59:29.255Z,110
2017-06-29T13:00:29.003Z,110
2017-06-29T13:01:29.513Z,105
2017-06-29T13:02:29.521Z,105
2017-06-29T13:03:29.189Z,95
2017-06-29T13:04:28.872Z,90
2017-06-29T13:05:28.864Z,90
2017-06-29T13:06:29.472Z,90
2017-06-29T13:07:29.422Z,90
2017-06-29T13:08:29.150Z,90
2017-06-29T13:09:28.823Z,90
2017-06-29T13:10:29.098Z,90
2017-06-29T13:11:28.471Z,95
2017-06-29T13:12:29.062Z,95
2017-06-29T13:13:29.075Z,100
2017-06-29T13:14:29.056Z,100
2017-06-29T13:15:29.053Z,105
2017-06-29T13:16:28.753Z,110
2017-06-29T13:17:29.021Z,115
2017-06-29T13:18:29.032Z,115
2017-06-29T13:19:28.718Z,120
2017-06-29T13:20:28.692Z,125
2017-06-29T13:21:28.352Z,125
2017-06-29T13:22:28.372Z,125
2017-06-29T13:23:28.970Z,125
2017-06-29T13:24:28.956Z,120
2017-06-29T13:25:29.223Z,120
2017-06-29T13:26:28.908Z,115
2017-06-29T13:27:28.890Z,110
2017-06-29T13:28:29.225Z,105
2017-06-29T13:29:28.934Z,95
2017-06-29T13:30:29.233Z,90
2017-06-29T13:31:29.137Z,85
2017-06-29T13:32:28.836Z,85
2017-06-29T13:33:28.822Z,80
2017-06-29T13:34:29.107Z,80
2017-06-29T13:35:28.900Z,80
2017-06-29T13:36:28.816Z,80
2017-06-29T13:37:29.104Z,85
2017-06-29T13:38:28.561Z,85
2017-06-29T13:39:28.814Z,85
2017-06-29T13:40:29.078Z,85
2017-06-29T13:41:29.018Z,85
2017-06-29T13:42:29.107Z,85
2017-06-29T13:43:28.685Z,85
2017-06-29T13:44:28.992Z,85
2017-06-29T13:45:28.764Z,85
2017-06-29T13:46:28.950Z,85
2017-06-29T13:47:28.934Z,85
2017-06-29T13:48:29.015Z,85
2017-06-29T13:49:28.909Z,80
2017-06-29T13:50:28.588Z,80
2017-06-29T13:51:28.909Z,80
2017-06-29T13:52:28.872Z,80
2017-06-29T13:53:28.239Z,80
2017-06-29T13:54:28.569Z,80
2017-06-29T13:55:28.855Z,80
2017-06-29T13:56:28.858Z,80
2017-06-29T13:57:27.891Z,75
2017-06-29T13:58:28.477Z,75
2017-06-29T13:59:28.806Z,75
2017-06-29T14:00:28.441Z,80
2017-06-29T14:01:28.768Z,85
2017-06-29T14:02:28.743Z,85
2017-06-29T14:03:28.440Z,85
2017-06-29T14:04:28.405Z,85
2017-06-29T14:05:28.682Z,85
2017-06-29T14:06:27.770Z,85
2017-06-29T14:07:28.362Z,85
2017-06-29T14:08:28.660Z,85
2017-06-29T14:09:28.121Z,85
2017-06-29T14:10:28.301Z,85
2017-06-29T14:11:28.309Z,90
2017-06-29T14:12:28.310Z,90
2017-06-29T14:13:28.576Z,90
2017-06-29T14:14:28.577Z,90
2017-06-29T14:15:28.265Z,90